Time;durP1;ratioP1;P1;durP2;ratioP2;P2;SDS_P1;SDS_P2;PMS_P1;PMS_P2;Temp;Humidity;BMP_temperature;BMP_pressure;BME280_temperature;BME280_humidity;BME280_pressure;Samples;Min_cycle;Max_cycle;Signal;HPM_P1;HPM_P2
2022/03/04 06:02:42;;;;;;;1999.90;999.90;;;;;;;;;;5089411;23;20238;-70
2022/03/04 06:05:27;;;;;;;1999.90;999.90;;;;;;;;;;4957474;29;20211;-71
2022/03/04 06:08:12;;;;;;;1999.90;999.90;;;;;;;;;;4955983;29;20216;-70
2022/03/04 06:10:57;;;;;;;1999.90;999.90;;;;;;;;;;4952062;29;20747;-70
2022/03/04 06:13:42;;;;;;;1999.90;999.90;;;;;;;;;;4937291;29;20580;-70
2022/03/04 06:16:27;;;;;;;1999.90;999.90;;;;;;;;;;4937816;29;20743;-71
2022/03/04 06:19:13;;;;;;;1999.90;999.90;;;;;;;;;;4937469;29;20272;-70
2022/03/04 06:21:58;;;;;;;1999.90;999.90;;;;;;;;;;4936792;29;20232;-71
2022/03/04 06:24:43;;;;;;;1999.90;999.90;;;;;;;;;;4937744;29;20213;-70
2022/03/04 06:27:28;;;;;;;1999.90;999.90;;;;;;;;;;4919049;29;20259;-71
2022/03/04 06:30:12;;;;;;;1999.90;999.90;;;;;;;;;;4928124;29;20431;-69
2022/03/04 06:35:59;;;;;;;1999.90;999.90;;;;;;;;;;4935468;29;20630;-71
2022/03/04 06:38:45;;;;;;;1999.90;999.90;;;;;;;;;;4936579;29;20213;-71
2022/03/04 06:41:30;;;;;;;1999.90;999.90;;;;;;;;;;4936780;29;20317;-70
2022/03/04 06:44:15;;;;;;;1999.90;999.90;;;;;;;;;;4937667;29;20338;-70
2022/03/04 06:47:00;;;;;;;1999.90;999.90;;;;;;;;;;4936842;29;20281;-70
2022/03/04 06:49:46;;;;;;;1999.90;999.90;;;;;;;;;;4917862;29;20221;-71
2022/03/04 06:52:32;;;;;;;1999.90;999.90;;;;;;;;;;4918423;29;20225;-70
2022/03/04 06:55:17;;;;;;;1999.90;999.90;;;;;;;;;;4918844;29;20702;-71
2022/03/04 06:58:02;;;;;;;1999.90;999.90;;;;;;;;;;4917067;29;20420;-71
2022/03/04 07:00:47;;;;;;;1999.90;999.90;;;;;;;;;;4918399;29;20607;-70
2022/03/04 07:03:32;;;;;;;1999.90;999.90;;;;;;;;;;4918188;29;20238;-71
2022/03/04 07:06:18;;;;;;;1999.90;999.90;;;;;;;;;;4918413;29;20338;-70
2022/03/04 07:09:05;;;;;;;1999.90;999.90;;;;;;;;;;4917808;29;20749;-70
2022/03/04 07:11:50;;;;;;;1999.90;999.90;;;;;;;;;;4918215;29;20357;-69
2022/03/04 07:14:36;;;;;;;1999.90;999.90;;;;;;;;;;4918518;29;20597;-70
2022/03/04 07:17:21;;;;;;;1999.90;999.90;;;;;;;;;;4918398;29;20585;-71
2022/03/04 07:20:07;;;;;;;1999.90;999.90;;;;;;;;;;4918176;29;20219;-70
2022/03/04 07:22:52;;;;;;;1999.90;999.90;;;;;;;;;;4918143;29;20281;-70
2022/03/04 07:25:39;;;;;;;1999.90;999.90;;;;;;;;;;4918169;29;20697;-71
2022/03/04 07:28:23;;;;;;;1999.90;999.90;;;;;;;;;;4917699;29;20213;-71
2022/03/04 07:31:08;;;;;;;1999.90;999.90;;;;;;;;;;4917922;29;20226;-71
2022/03/04 07:33:53;;;;;;;1999.90;999.90;;;;;;;;;;4924493;29;20213;-70
2022/03/04 07:36:38;;;;;;;1999.90;999.90;;;;;;;;;;4936385;29;20209;-71
2022/03/04 07:39:23;;;;;;;1999.90;999.90;;;;;;;;;;4935881;29;20258;-70
2022/03/04 07:42:10;;;;;;;1999.90;999.90;;;;;;;;;;4936415;29;20270;-70
2022/03/04 07:44:55;;;;;;;1999.90;999.90;;;;;;;;;;4936463;29;20221;-70
2022/03/04 07:47:41;;;;;;;1999.90;999.90;;;;;;;;;;4936103;29;20253;-69
2022/03/04 07:50:26;;;;;;;1999.90;999.90;;;;;;;;;;4936328;29;20217;-70
2022/03/04 07:53:11;;;;;;;1999.90;999.90;;;;;;;;;;4935836;29;20803;-69
2022/03/04 07:55:55;;;;;;;1999.90;999.90;;;;;;;;;;4944719;29;20230;-71
2022/03/04 07:58:41;;;;;;;1999.90;999.90;;;;;;;;;;4934575;29;20330;-70
2022/03/04 08:01:26;;;;;;;1999.90;999.90;;;;;;;;;;4936501;29;20328;-70
2022/03/04 08:04:12;;;;;;;1999.90;999.90;;;;;;;;;;4927122;29;20729;-69
2022/03/04 08:06:58;;;;;;;1999.90;999.90;;;;;;;;;;4925269;29;20215;-69
2022/03/04 08:09:43;;;;;;;1999.90;999.90;;;;;;;;;;4927365;29;20211;-70
2022/03/04 08:12:27;;;;;;;1999.90;999.90;;;;;;;;;;4936918;29;20226;-68
2022/03/04 08:15:14;;;;;;;1999.90;999.90;;;;;;;;;;4930144;29;20576;-70
2022/03/04 08:17:59;;;;;;;1999.90;999.90;;;;;;;;;;4916151;29;20582;-69
2022/03/04 08:20:44;;;;;;;1999.90;999.90;;;;;;;;;;4916529;29;20253;-69
2022/03/04 08:23:29;;;;;;;1999.90;999.90;;;;;;;;;;4927618;29;20317;-71
2022/03/04 08:26:14;;;;;;;1999.90;999.90;;;;;;;;;;4936475;29;20291;-68
2022/03/04 08:28:59;;;;;;;1999.90;999.90;;;;;;;;;;4935468;29;20205;-70
2022/03/04 08:31:45;;;;;;;1999.90;999.90;;;;;;;;;;4936386;29;20224;-70
2022/03/04 08:34:30;;;;;;;1999.90;999.90;;;;;;;;;;4915755;29;20778;-70
2022/03/04 08:37:15;;;;;;;1999.90;999.90;;;;;;;;;;4930814;29;20209;-70
2022/03/04 08:40:01;;;;;;;1999.90;999.90;;;;;;;;;;4935275;29;20743;-69
2022/03/04 08:42:46;;;;;;;1999.90;999.90;;;;;;;;;;4935551;29;20267;-68
2022/03/04 08:45:31;;;;;;;1999.90;999.90;;;;;;;;;;4935839;29;20569;-69
2022/03/04 08:48:17;;;;;;;1999.90;999.90;;;;;;;;;;4934737;29;20221;-69
2022/03/04 08:51:02;;;;;;;1999.90;999.90;;;;;;;;;;4934712;29;20406;-69
2022/03/04 08:53:47;;;;;;;1999.90;999.90;;;;;;;;;;4935203;29;20248;-70
2022/03/04 08:56:32;;;;;;;1999.90;999.90;;;;;;;;;;4935263;29;20584;-69
2022/03/04 08:59:17;;;;;;;1999.90;999.90;;;;;;;;;;4934593;29;20253;-70
2022/03/04 09:02:02;;;;;;;1999.90;999.90;;;;;;;;;;4933033;29;20813;-70
2022/03/04 09:04:48;;;;;;;1999.90;999.90;;;;;;;;;;4935420;29;20580;-69
2022/03/04 09:07:34;;;;;;;1999.90;999.90;;;;;;;;;;4935344;29;20205;-70
2022/03/04 09:10:19;;;;;;;1999.90;999.90;;;;;;;;;;4934597;29;20330;-69
2022/03/04 09:13:05;;;;;;;1999.90;999.90;;;;;;;;;;4932402;29;20333;-70
2022/03/04 09:15:50;;;;;;;1999.90;999.90;;;;;;;;;;4935344;29;20434;-67
2022/03/04 09:18:35;;;;;;;1999.90;999.90;;;;;;;;;;4934219;29;20269;-69
2022/03/04 09:21:21;;;;;;;1999.90;999.90;;;;;;;;;;4933399;29;20225;-69
2022/03/04 09:24:07;;;;;;;1999.90;999.90;;;;;;;;;;4935010;29;20253;-69
2022/03/04 09:26:52;;;;;;;1999.90;999.90;;;;;;;;;;4935249;29;20205;-69
2022/03/04 09:29:37;;;;;;;1999.90;999.90;;;;;;;;;;4934658;29;20212;-70
2022/03/04 09:32:23;;;;;;;1999.90;999.90;;;;;;;;;;4934764;29;20241;-69
2022/03/04 09:35:08;;;;;;;1999.90;999.90;;;;;;;;;;4935844;29;20330;-70
2022/03/04 09:37:54;;;;;;;1999.90;999.90;;;;;;;;;;4932547;29;20572;-70
2022/03/04 09:40:40;;;;;;;1999.90;999.90;;;;;;;;;;4926863;29;20256;-68
2022/03/04 09:43:25;;;;;;;1999.90;999.90;;;;;;;;;;4934000;29;20225;-70
2022/03/04 09:46:12;;;;;;;1999.90;999.90;;;;;;;;;;4934737;29;20221;-69
2022/03/04 09:48:58;;;;;;;1999.90;999.90;;;;;;;;;;4934063;29;20211;-70
2022/03/04 09:51:43;;;;;;;1999.90;999.90;;;;;;;;;;4934005;29;20233;-71
2022/03/04 09:54:29;;;;;;;1999.90;999.90;;;;;;;;;;4935328;29;20208;-69
2022/03/04 09:57:14;;;;;;;1999.90;999.90;;;;;;;;;;4935150;29;20578;-68
2022/03/04 09:59:59;;;;;;;1999.90;999.90;;;;;;;;;;4933435;29;20281;-70
2022/03/04 10:02:44;;;;;;;1999.90;999.90;;;;;;;;;;4934586;29;20229;-68
2022/03/04 10:05:29;;;;;;;1999.90;999.90;;;;;;;;;;4934903;29;20268;-70
2022/03/04 10:08:18;;;;;;;1999.90;999.90;;;;;;;;;;4932970;29;20422;-69
2022/03/04 10:11:04;;;;;;;1999.90;999.90;;;;;;;;;;4935197;29;20240;-70
2022/03/04 10:13:50;;;;;;;1999.90;999.90;;;;;;;;;;4935483;29;20245;-70
2022/03/04 10:16:36;;;;;;;1999.90;999.90;;;;;;;;;;4935033;29;20292;-69
2022/03/04 10:19:23;;;;;;;1999.90;999.90;;;;;;;;;;4933931;29;20195;-70
2022/03/04 10:22:08;;;;;;;1999.90;999.90;;;;;;;;;;4933907;29;20376;-69
2022/03/04 10:24:52;;;;;;;1999.90;999.90;;;;;;;;;;4934411;29;20510;-69
2022/03/04 10:27:38;;;;;;;1999.90;999.90;;;;;;;;;;4933820;29;20209;-68
2022/03/04 10:30:30;;;;;;;1999.90;999.90;;;;;;;;;;4927591;29;20705;-70
2022/03/04 10:33:16;;;;;;;1999.90;999.90;;;;;;;;;;4933759;29;20761;-70
2022/03/04 10:36:08;;;;;;;1999.90;999.90;;;;;;;;;;4932816;29;20237;-69
2022/03/04 10:39:07;;;;;;;1999.90;999.90;;;;;;;;;;4926339;29;20215;-69
2022/03/04 10:41:52;;;;;;;1999.90;999.90;;;;;;;;;;4933593;29;20582;-71
2022/03/04 10:44:38;;;;;;;1999.90;999.90;;;;;;;;;;4917833;29;20235;-70
2022/03/04 10:47:23;;;;;;;1999.90;999.90;;;;;;;;;;4928635;29;20667;-70
2022/03/04 10:50:08;;;;;;;1999.90;999.90;;;;;;;;;;4937026;29;20214;-70
2022/03/04 10:52:57;;;;;;;1999.90;999.90;;;;;;;;;;4937405;29;20206;-70
2022/03/04 10:55:42;;;;;;;1999.90;999.90;;;;;;;;;;4933822;29;20587;-68
2022/03/04 10:58:28;;;;;;;1999.90;999.90;;;;;;;;;;4936903;29;20208;-69
2022/03/04 11:01:18;;;;;;;1999.90;999.90;;;;;;;;;;4936883;29;20246;-71
2022/03/04 11:04:03;;;;;;;1999.90;999.90;;;;;;;;;;4926921;29;20236;-71
2022/03/04 11:06:49;;;;;;;1999.90;999.90;;;;;;;;;;4936809;29;20223;-71
2022/03/04 11:09:34;;;;;;;1999.90;999.90;;;;;;;;;;4917513;29;20256;-71
2022/03/04 11:12:20;;;;;;;1999.90;999.90;;;;;;;;;;4918112;29;20319;-70
2022/03/04 11:15:05;;;;;;;1999.90;999.90;;;;;;;;;;4917732;29;20265;-70
2022/03/04 11:17:52;;;;;;;1999.90;999.90;;;;;;;;;;4917833;29;20212;-70
2022/03/04 11:20:38;;;;;;;1999.90;999.90;;;;;;;;;;4918439;29;20212;-70
2022/03/04 11:23:24;;;;;;;1999.90;999.90;;;;;;;;;;4930559;29;20221;-71
2022/03/04 11:26:19;;;;;;;1999.90;999.90;;;;;;;;;;4937919;29;20294;-70
2022/03/04 11:29:05;;;;;;;1999.90;999.90;;;;;;;;;;4936427;29;20600;-68
2022/03/04 11:31:50;;;;;;;1999.90;999.90;;;;;;;;;;4936959;29;20233;-70
2022/03/04 11:34:36;;;;;;;1999.90;999.90;;;;;;;;;;4936504;29;20216;-68
2022/03/04 11:37:22;;;;;;;1999.90;999.90;;;;;;;;;;4921754;29;20733;-70
2022/03/04 11:40:33;;;;;;;1999.90;999.90;;;;;;;;;;4933012;29;20434;-70
2022/03/04 11:43:16;;;;;;;1999.90;999.90;;;;;;;;;;4934581;29;20239;-70
2022/03/04 11:46:03;;;;;;;1999.90;999.90;;;;;;;;;;4936337;29;20209;-70
2022/03/04 11:48:48;;;;;;;1999.90;999.90;;;;;;;;;;4935302;29;20256;-70
2022/03/04 11:51:34;;;;;;;1999.90;999.90;;;;;;;;;;4935600;29;20235;-70
2022/03/04 11:54:23;;;;;;;1999.90;999.90;;;;;;;;;;4936182;29;20208;-69
2022/03/04 11:57:15;;;;;;;1999.90;999.90;;;;;;;;;;4935802;29;20260;-69
2022/03/04 12:00:01;;;;;;;1999.90;999.90;;;;;;;;;;4922816;29;20216;-68
2022/03/04 12:02:47;;;;;;;1999.90;999.90;;;;;;;;;;4936009;29;20217;-70
2022/03/04 12:05:33;;;;;;;1999.90;999.90;;;;;;;;;;4936245;29;20211;-69
2022/03/04 12:08:19;;;;;;;1999.90;999.90;;;;;;;;;;4935388;29;20233;-68
2022/03/04 12:11:04;;;;;;;1999.90;999.90;;;;;;;;;;4935613;29;20243;-68
2022/03/04 12:13:49;;;;;;;1999.90;999.90;;;;;;;;;;4934946;29;20265;-68
2022/03/04 12:16:46;;;;;;;1999.90;999.90;;;;;;;;;;4927300;29;20716;-69
2022/03/04 12:19:34;;;;;;;1999.90;999.90;;;;;;;;;;4934886;29;20261;-70
2022/03/04 12:22:19;;;;;;;1999.90;999.90;;;;;;;;;;4916723;29;20230;-69
2022/03/04 12:25:06;;;;;;;1999.90;999.90;;;;;;;;;;4930713;29;20292;-69
2022/03/04 12:27:55;;;;;;;1999.90;999.90;;;;;;;;;;4935281;29;20208;-69
2022/03/04 12:30:39;;;;;;;1999.90;999.90;;;;;;;;;;4935516;29;20329;-69
2022/03/04 12:33:24;;;;;;;1999.90;999.90;;;;;;;;;;4934758;29;20219;-70
2022/03/04 12:36:10;;;;;;;1999.90;999.90;;;;;;;;;;4916852;29;20217;-71
2022/03/04 12:38:56;;;;;;;1999.90;999.90;;;;;;;;;;4934399;29;20236;-70
2022/03/04 12:41:43;;;;;;;1999.90;999.90;;;;;;;;;;4935210;29;20309;-70
2022/03/04 12:44:28;;;;;;;1999.90;999.90;;;;;;;;;;4935385;29;20244;-70
2022/03/04 12:47:14;;;;;;;1999.90;999.90;;;;;;;;;;4934859;29;20229;-69
2022/03/04 12:49:59;;;;;;;1999.90;999.90;;;;;;;;;;4922387;29;20214;-69
2022/03/04 12:52:44;;;;;;;1999.90;999.90;;;;;;;;;;4928344;29;20228;-70
2022/03/04 12:55:35;;;;;;;1999.90;999.90;;;;;;;;;;4938084;29;20201;-70
2022/03/04 12:58:35;;;;;;;1999.90;999.90;;;;;;;;;;4928425;29;20292;-69
2022/03/04 13:01:21;;;;;;;1999.90;999.90;;;;;;;;;;4926966;29;20248;-69
2022/03/04 13:04:07;;;;;;;1999.90;999.90;;;;;;;;;;4916259;29;20274;-70
2022/03/04 13:06:58;;;;;;;1999.90;999.90;;;;;;;;;;4916132;29;20213;-69
2022/03/04 13:09:48;;;;;;;1999.90;999.90;;;;;;;;;;4933302;29;20240;-70
2022/03/04 13:12:33;;;;;;;1999.90;999.90;;;;;;;;;;4933467;29;20429;-70
2022/03/04 13:15:19;;;;;;;1999.90;999.90;;;;;;;;;;4935583;29;20594;-71
2022/03/04 13:18:04;;;;;;;1999.90;999.90;;;;;;;;;;4932866;29;20289;-72
2022/03/04 13:21:02;;;;;;;1999.90;999.90;;;;;;;;;;4934330;29;20345;-70
2022/03/04 13:23:51;;;;;;;1999.90;999.90;;;;;;;;;;4935210;29;20229;-70
2022/03/04 13:26:37;;;;;;;1999.90;999.90;;;;;;;;;;4936070;29;20932;-70
2022/03/04 13:29:23;;;;;;;1999.90;999.90;;;;;;;;;;4935548;29;20209;-70
2022/03/04 13:32:11;;;;;;;1999.90;999.90;;;;;;;;;;4935742;29;20325;-70
2022/03/04 13:34:59;;;;;;;1999.90;999.90;;;;;;;;;;4935713;29;20205;-70
2022/03/04 13:37:44;;;;;;;1999.90;999.90;;;;;;;;;;4935221;29;20212;-70
2022/03/04 13:40:31;;;;;;;1999.90;999.90;;;;;;;;;;4935599;29;20201;-70
2022/03/04 13:43:26;;;;;;;1999.90;999.90;;;;;;;;;;4935449;29;20184;-70
2022/03/04 13:46:12;;;;;;;1999.90;999.90;;;;;;;;;;4935848;29;20209;-70
2022/03/04 13:49:03;;;;;;;1999.90;999.90;;;;;;;;;;4935253;29;20210;-70
2022/03/04 13:51:59;;;;;;;1999.90;999.90;;;;;;;;;;4935587;29;20292;-69
2022/03/04 13:54:52;;;;;;;1999.90;999.90;;;;;;;;;;4935114;29;20204;-69
2022/03/04 13:57:38;;;;;;;1999.90;999.90;;;;;;;;;;4935044;29;20209;-70
2022/03/04 14:00:23;;;;;;;1999.90;999.90;;;;;;;;;;4934551;29;20588;-69
2022/03/04 14:03:08;;;;;;;1999.90;999.90;;;;;;;;;;4931415;29;20246;-71
2022/03/04 14:05:59;;;;;;;1999.90;999.90;;;;;;;;;;4932466;29;20300;-72
2022/03/04 14:08:44;;;;;;;1999.90;999.90;;;;;;;;;;4928460;29;20208;-70
2022/03/04 14:11:29;;;;;;;1999.90;999.90;;;;;;;;;;4931881;29;20313;-70
2022/03/04 14:14:15;;;;;;;1999.90;999.90;;;;;;;;;;4931384;29;20837;-69
2022/03/04 14:17:00;;;;;;;1999.90;999.90;;;;;;;;;;4932430;29;20225;-69
2022/03/04 14:19:45;;;;;;;1999.90;999.90;;;;;;;;;;4934353;29;20709;-71
2022/03/04 14:22:31;;;;;;;1999.90;999.90;;;;;;;;;;4935119;29;20229;-71
2022/03/04 14:25:16;;;;;;;1999.90;999.90;;;;;;;;;;4935247;29;20228;-68
2022/03/04 14:28:02;;;;;;;1999.90;999.90;;;;;;;;;;4918705;29;20209;-69
2022/03/04 14:30:48;;;;;;;1999.90;999.90;;;;;;;;;;4918935;29;20802;-70
2022/03/04 14:33:33;;;;;;;1999.90;999.90;;;;;;;;;;4934353;29;20205;-71
2022/03/04 14:36:18;;;;;;;1999.90;999.90;;;;;;;;;;4937710;29;20206;-70
2022/03/04 14:39:04;;;;;;;1999.90;999.90;;;;;;;;;;4936770;29;20585;-70
2022/03/04 14:41:49;;;;;;;1999.90;999.90;;;;;;;;;;4938254;29;20736;-71
2022/03/04 14:44:34;;;;;;;1999.90;999.90;;;;;;;;;;4936977;29;20442;-71
2022/03/04 14:47:20;;;;;;;1999.90;999.90;;;;;;;;;;4937891;29;20210;-71
2022/03/04 14:50:05;;;;;;;1999.90;999.90;;;;;;;;;;4937769;29;20692;-71
2022/03/04 14:52:51;;;;;;;1999.90;999.90;;;;;;;;;;4937663;29;20213;-70
2022/03/04 14:55:37;;;;;;;1999.90;999.90;;;;;;;;;;4918983;29;20693;-70
2022/03/04 14:58:22;;;;;;;1999.90;999.90;;;;;;;;;;4925929;29;20208;-71
2022/03/04 15:01:07;;;;;;;1999.90;999.90;;;;;;;;;;4935017;29;20329;-71
2022/03/04 15:03:52;;;;;;;1999.90;999.90;;;;;;;;;;4935099;29;20293;-70
2022/03/04 15:06:37;;;;;;;1999.90;999.90;;;;;;;;;;4934690;29;20236;-70
2022/03/04 15:09:21;;;;;;;1999.90;999.90;;;;;;;;;;4932336;29;20226;-68
2022/03/04 15:12:09;;;;;;;1999.90;999.90;;;;;;;;;;4934467;29;20732;-69
2022/03/04 15:14:54;;;;;;;1999.90;999.90;;;;;;;;;;4935076;29;20201;-69
2022/03/04 15:17:39;;;;;;;1999.90;999.90;;;;;;;;;;4934224;29;20434;-70
2022/03/04 15:20:25;;;;;;;1999.90;999.90;;;;;;;;;;4935066;29;20297;-69
2022/03/04 15:23:10;;;;;;;1999.90;999.90;;;;;;;;;;4933091;29;20217;-70
2022/03/04 15:25:55;;;;;;;1999.90;999.90;;;;;;;;;;4940488;29;20281;-69
2022/03/04 15:28:41;;;;;;;1999.90;999.90;;;;;;;;;;4934097;29;20221;-70
2022/03/04 15:31:26;;;;;;;1999.90;999.90;;;;;;;;;;4933338;28;20419;-70
2022/03/04 15:34:11;;;;;;;1999.90;999.90;;;;;;;;;;4934572;29;20685;-70
2022/03/04 15:36:56;;;;;;;1999.90;999.90;;;;;;;;;;4935087;29;20225;-70
2022/03/04 15:39:40;;;;;;;1999.90;999.90;;;;;;;;;;4935826;29;20204;-69
2022/03/04 15:42:25;;;;;;;1999.90;999.90;;;;;;;;;;4933829;29;20234;-70
2022/03/04 15:45:13;;;;;;;1999.90;999.90;;;;;;;;;;4933622;29;20299;-70
2022/03/04 15:47:58;;;;;;;1999.90;999.90;;;;;;;;;;4931541;29;20736;-69
2022/03/04 15:50:43;;;;;;;1999.90;999.90;;;;;;;;;;4935120;29;20273;-70
2022/03/04 15:53:28;;;;;;;1999.90;999.90;;;;;;;;;;4933656;29;20213;-70
2022/03/04 15:56:13;;;;;;;1999.90;999.90;;;;;;;;;;4934207;29;20197;-69
2022/03/04 15:58:58;;;;;;;1999.90;999.90;;;;;;;;;;4933861;29;20280;-70
2022/03/04 16:01:45;;;;;;;1999.90;999.90;;;;;;;;;;4930134;29;20245;-70
2022/03/04 16:04:30;;;;;;;1999.90;999.90;;;;;;;;;;4933251;29;20234;-70
2022/03/04 16:07:14;;;;;;;1999.90;999.90;;;;;;;;;;4931651;29;20256;-70
2022/03/04 16:09:59;;;;;;;1999.90;999.90;;;;;;;;;;4933697;29;20201;-70
2022/03/04 16:12:44;;;;;;;1999.90;999.90;;;;;;;;;;4934337;29;20212;-70
2022/03/04 16:15:29;;;;;;;1999.90;999.90;;;;;;;;;;4932344;29;20422;-70
2022/03/04 16:18:16;;;;;;;1999.90;999.90;;;;;;;;;;4933786;29;20221;-69
2022/03/04 16:21:02;;;;;;;1999.90;999.90;;;;;;;;;;4933913;29;20357;-69
2022/03/04 16:23:47;;;;;;;1999.90;999.90;;;;;;;;;;4934789;29;20213;-69
2022/03/04 16:26:32;;;;;;;1999.90;999.90;;;;;;;;;;4933932;29;20213;-69
2022/03/04 16:29:17;;;;;;;1999.90;999.90;;;;;;;;;;4932224;29;20261;-69
2022/03/04 16:32:02;;;;;;;1999.90;999.90;;;;;;;;;;4932265;29;20905;-69
2022/03/04 16:34:49;;;;;;;1999.90;999.90;;;;;;;;;;4933012;29;20213;-70
2022/03/04 16:37:33;;;;;;;1999.90;999.90;;;;;;;;;;4932946;29;20212;-70
2022/03/04 16:40:19;;;;;;;1999.90;999.90;;;;;;;;;;4933760;29;20268;-69
2022/03/04 16:43:04;;;;;;;1999.90;999.90;;;;;;;;;;4933407;29;20210;-70
2022/03/04 16:45:49;;;;;;;1999.90;999.90;;;;;;;;;;4933656;29;20228;-69
2022/03/04 16:48:35;;;;;;;1999.90;999.90;;;;;;;;;;4932699;29;20700;-70
2022/03/04 16:51:21;;;;;;;1999.90;999.90;;;;;;;;;;4932855;29;20740;-70
2022/03/04 16:54:06;;;;;;;1999.90;999.90;;;;;;;;;;4933025;29;20217;-70
2022/03/04 16:56:51;;;;;;;1999.90;999.90;;;;;;;;;;4935194;29;20280;-70
2022/03/04 16:59:37;;;;;;;1999.90;999.90;;;;;;;;;;4934686;29;20213;-70
2022/03/04 17:02:22;;;;;;;1999.90;999.90;;;;;;;;;;4933229;29;20281;-69
2022/03/04 17:05:08;;;;;;;1999.90;999.90;;;;;;;;;;4932793;29;20221;-69
2022/03/04 17:07:56;;;;;;;1999.90;999.90;;;;;;;;;;4931840;29;20209;-71
2022/03/04 17:10:41;;;;;;;1999.90;999.90;;;;;;;;;;4933137;29;20237;-70
2022/03/04 17:13:26;;;;;;;1999.90;999.90;;;;;;;;;;4933320;29;20221;-68
2022/03/04 17:16:12;;;;;;;1999.90;999.90;;;;;;;;;;4933895;29;20209;-71
2022/03/04 17:18:57;;;;;;;1999.90;999.90;;;;;;;;;;4935636;29;20383;-71
2022/03/04 17:21:43;;;;;;;1999.90;999.90;;;;;;;;;;4936679;29;20232;-72
2022/03/04 17:24:29;;;;;;;1999.90;999.90;;;;;;;;;;4933719;29;20739;-71
2022/03/04 17:27:16;;;;;;;1999.90;999.90;;;;;;;;;;4933142;29;20217;-69
2022/03/04 17:30:02;;;;;;;1999.90;999.90;;;;;;;;;;4932247;29;20211;-69
2022/03/04 17:32:47;;;;;;;1999.90;999.90;;;;;;;;;;4933028;29;20581;-69
2022/03/04 17:35:32;;;;;;;1999.90;999.90;;;;;;;;;;4933821;29;20252;-68
2022/03/04 17:38:18;;;;;;;1999.90;999.90;;;;;;;;;;4930646;29;20821;-68
2022/03/04 17:41:04;;;;;;;1999.90;999.90;;;;;;;;;;4932916;29;20238;-69
2022/03/04 17:43:49;;;;;;;1999.90;999.90;;;;;;;;;;4932337;29;20211;-68
2022/03/04 17:46:34;;;;;;;1999.90;999.90;;;;;;;;;;4931402;29;20643;-69
2022/03/04 17:49:19;;;;;;;1999.90;999.90;;;;;;;;;;4931734;29;20252;-68
2022/03/04 17:52:04;;;;;;;1999.90;999.90;;;;;;;;;;4932702;29;20229;-69
2022/03/04 17:54:50;;;;;;;1999.90;999.90;;;;;;;;;;4936602;29;20207;-69
2022/03/04 17:57:36;;;;;;;1999.90;999.90;;;;;;;;;;4936001;29;20583;-67
2022/03/04 18:00:22;;;;;;;1999.90;999.90;;;;;;;;;;4936368;29;20211;-69
2022/03/04 18:03:07;;;;;;;1999.90;999.90;;;;;;;;;;4936800;29;21096;-70
2022/03/04 18:05:51;;;;;;;1999.90;999.90;;;;;;;;;;4935764;29;20229;-69
2022/03/04 18:08:36;;;;;;;1999.90;999.90;;;;;;;;;;4937240;29;20699;-69
2022/03/04 18:11:21;;;;;;;1999.90;999.90;;;;;;;;;;4935055;29;20228;-68
2022/03/04 18:14:08;;;;;;;1999.90;999.90;;;;;;;;;;4936579;29;20534;-69
2022/03/04 18:16:53;;;;;;;1999.90;999.90;;;;;;;;;;4938417;29;20204;-69
2022/03/04 18:19:38;;;;;;;1999.90;999.90;;;;;;;;;;4938119;29;20283;-69
2022/03/04 18:22:23;;;;;;;1999.90;999.90;;;;;;;;;;4939545;29;20226;-69
2022/03/04 18:25:08;;;;;;;1999.90;999.90;;;;;;;;;;4938298;29;20772;-70
2022/03/04 18:27:53;;;;;;;1999.90;999.90;;;;;;;;;;4938004;29;20216;-68
2022/03/04 18:30:40;;;;;;;1999.90;999.90;;;;;;;;;;4937977;29;20593;-70
2022/03/04 18:33:25;;;;;;;1999.90;999.90;;;;;;;;;;4938276;29;20214;-70
2022/03/04 18:36:10;;;;;;;1999.90;999.90;;;;;;;;;;4939248;29;20211;-70
2022/03/04 18:41:57;;;;;;;1999.90;999.90;;;;;;;;;;4927338;29;20314;-69
2022/03/04 18:44:42;;;;;;;1999.90;999.90;;;;;;;;;;4919497;29;20696;-70
2022/03/04 18:47:28;;;;;;;1999.90;999.90;;;;;;;;;;4918634;29;20199;-70
2022/03/04 18:50:13;;;;;;;1999.90;999.90;;;;;;;;;;4927762;29;20510;-69
2022/03/04 18:52:58;;;;;;;1999.90;999.90;;;;;;;;;;4937626;29;20231;-69
2022/03/04 18:55:43;;;;;;;1999.90;999.90;;;;;;;;;;4937058;29;20202;-69
2022/03/04 18:58:28;;;;;;;1999.90;999.90;;;;;;;;;;4929508;29;20685;-70
2022/03/04 19:01:13;;;;;;;1999.90;999.90;;;;;;;;;;4930767;29;20239;-68
2022/03/04 19:03:59;;;;;;;1999.90;999.90;;;;;;;;;;4936914;29;20242;-71
2022/03/04 19:06:45;;;;;;;1999.90;999.90;;;;;;;;;;4936616;29;20287;-70
2022/03/04 19:09:29;;;;;;;1999.90;999.90;;;;;;;;;;4936546;29;20211;-70
2022/03/04 19:12:15;;;;;;;1999.90;999.90;;;;;;;;;;4936973;29;20422;-70
2022/03/04 19:15:00;;;;;;;1999.90;999.90;;;;;;;;;;4937286;29;20294;-70
2022/03/04 19:17:46;;;;;;;1999.90;999.90;;;;;;;;;;4935831;29;20447;-70
2022/03/04 19:20:32;;;;;;;1999.90;999.90;;;;;;;;;;4936819;29;20235;-71
2022/03/04 19:23:17;;;;;;;1999.90;999.90;;;;;;;;;;4936389;29;20217;-72
2022/03/04 19:26:03;;;;;;;1999.90;999.90;;;;;;;;;;4936988;29;20314;-71
2022/03/04 19:28:48;;;;;;;1999.90;999.90;;;;;;;;;;4936101;29;20214;-71
2022/03/04 19:31:33;;;;;;;1999.90;999.90;;;;;;;;;;4936558;29;20233;-71
2022/03/04 19:34:17;;;;;;;1999.90;999.90;;;;;;;;;;4936502;29;20251;-71
2022/03/04 19:37:04;;;;;;;1999.90;999.90;;;;;;;;;;4936873;29;20204;-71
2022/03/04 19:39:49;;;;;;;1999.90;999.90;;;;;;;;;;4936091;29;20279;-71
2022/03/04 19:42:34;;;;;;;1999.90;999.90;;;;;;;;;;4936649;29;20241;-72
2022/03/04 19:45:19;;;;;;;1999.90;999.90;;;;;;;;;;4936727;29;20745;-72
2022/03/04 19:48:04;;;;;;;1999.90;999.90;;;;;;;;;;4935762;29;20302;-71
2022/03/04 19:50:50;;;;;;;1999.90;999.90;;;;;;;;;;4936432;29;20245;-73
2022/03/04 19:53:36;;;;;;;1999.90;999.90;;;;;;;;;;4936299;29;20216;-71
2022/03/04 19:56:23;;;;;;;1999.90;999.90;;;;;;;;;;4936287;29;20689;-72
2022/03/04 19:59:08;;;;;;;1999.90;999.90;;;;;;;;;;4935232;29;20229;-72
2022/03/04 20:01:53;;;;;;;1999.90;999.90;;;;;;;;;;4935852;29;20650;-69
2022/03/04 20:04:38;;;;;;;1999.90;999.90;;;;;;;;;;4936214;29;20233;-72
2022/03/04 20:07:24;;;;;;;1999.90;999.90;;;;;;;;;;4936534;29;20247;-71
2022/03/04 20:10:10;;;;;;;1999.90;999.90;;;;;;;;;;4935903;29;20338;-71
2022/03/04 20:12:56;;;;;;;1999.90;999.90;;;;;;;;;;4935214;29;20217;-69
2022/03/04 20:15:41;;;;;;;1999.90;999.90;;;;;;;;;;4926162;29;20210;-70
2022/03/04 20:18:26;;;;;;;1999.90;999.90;;;;;;;;;;4935268;29;20288;-70
2022/03/04 20:21:10;;;;;;;1999.90;999.90;;;;;;;;;;4935635;29;20437;-71
2022/03/04 20:23:55;;;;;;;1999.90;999.90;;;;;;;;;;4933355;29;20276;-71
2022/03/04 20:26:41;;;;;;;1999.90;999.90;;;;;;;;;;4936530;29;20684;-71
2022/03/04 20:29:27;;;;;;;1999.90;999.90;;;;;;;;;;4933844;29;20213;-71
2022/03/04 20:32:12;;;;;;;1999.90;999.90;;;;;;;;;;4935416;29;20233;-72
2022/03/04 20:34:57;;;;;;;1999.90;999.90;;;;;;;;;;4935105;29;20357;-71
2022/03/04 20:37:42;;;;;;;1999.90;999.90;;;;;;;;;;4934459;29;20687;-71
2022/03/04 20:40:27;;;;;;;1999.90;999.90;;;;;;;;;;4931961;29;20220;-71
2022/03/04 20:43:13;;;;;;;1999.90;999.90;;;;;;;;;;4932728;29;20210;-72
2022/03/04 20:45:58;;;;;;;1999.90;999.90;;;;;;;;;;4932731;29;20274;-71
2022/03/04 20:48:43;;;;;;;1999.90;999.90;;;;;;;;;;4931637;29;20351;-71
2022/03/04 20:51:28;;;;;;;1999.90;999.90;;;;;;;;;;4932290;29;20406;-71
2022/03/04 20:54:13;;;;;;;1999.90;999.90;;;;;;;;;;4933056;29;20709;-72
2022/03/04 20:56:59;;;;;;;1999.90;999.90;;;;;;;;;;4931984;29;20390;-70
2022/03/04 20:59:48;;;;;;;1999.90;999.90;;;;;;;;;;4931731;29;20233;-71
2022/03/04 21:02:32;;;;;;;1999.90;999.90;;;;;;;;;;4932409;29;20262;-71
2022/03/04 21:05:18;;;;;;;1999.90;999.90;;;;;;;;;;4930703;29;20205;-71
2022/03/04 21:08:03;;;;;;;1999.90;999.90;;;;;;;;;;4932430;29;20213;-70
2022/03/04 21:10:48;;;;;;;1999.90;999.90;;;;;;;;;;4931960;29;20236;-71
2022/03/04 21:13:33;;;;;;;1999.90;999.90;;;;;;;;;;4932843;29;20216;-71
2022/03/04 21:16:20;;;;;;;1999.90;999.90;;;;;;;;;;4933194;29;20201;-71
2022/03/04 21:19:04;;;;;;;1999.90;999.90;;;;;;;;;;4932131;29;20349;-71
2022/03/04 21:21:49;;;;;;;1999.90;999.90;;;;;;;;;;4932650;29;20345;-70
2022/03/04 21:24:34;;;;;;;1999.90;999.90;;;;;;;;;;4932762;29;20209;-69
2022/03/04 21:27:19;;;;;;;1999.90;999.90;;;;;;;;;;4932257;29;20228;-71
2022/03/04 21:30:05;;;;;;;1999.90;999.90;;;;;;;;;;4932639;29;20217;-71
2022/03/04 21:32:51;;;;;;;1999.90;999.90;;;;;;;;;;4932687;29;20574;-70